createdAt,value
2023-01-29T00:00:33.801Z,-0.12
2023-01-29T00:03:00.315Z,-0.11
2023-01-29T00:05:28.446Z,-0.12
2023-01-29T00:07:56.938Z,-0.08
2023-01-29T00:10:24.962Z,-0.07
2023-01-29T00:12:51.441Z,-0.03
2023-01-29T00:15:18.134Z,-0.09
2023-01-29T00:17:44.566Z,-0.15
2023-01-29T00:20:11.847Z,-0.13
2023-01-29T00:22:38.246Z,-0.09
2023-01-29T00:25:05.046Z,-0.12
2023-01-29T00:27:31.568Z,-0.08
2023-01-29T00:29:58.233Z,-0.05
2023-01-29T00:32:24.806Z,-0.07
2023-01-29T00:34:51.261Z,-0.11
2023-01-29T00:37:18.036Z,-0.10
2023-01-29T00:39:48.204Z,-0.10
2023-01-29T00:42:14.973Z,-0.10
2023-01-29T00:44:41.453Z,-0.11
2023-01-29T00:47:07.937Z,-0.13
2023-01-29T00:49:34.516Z,-0.13
2023-01-29T00:52:01.194Z,-0.17
2023-01-29T00:54:27.606Z,-0.21
2023-01-29T00:56:56.401Z,-0.24
2023-01-29T00:59:22.917Z,-0.23
2023-01-29T01:01:49.493Z,-0.24
2023-01-29T01:04:16.231Z,-0.26
2023-01-29T01:06:42.766Z,-0.27
2023-01-29T01:09:10.481Z,-0.27
2023-01-29T01:11:36.823Z,-0.26
2023-01-29T01:14:03.362Z,-0.25
2023-01-29T01:16:29.829Z,-0.23
2023-01-29T01:18:56.488Z,-0.24
2023-01-29T01:21:23.018Z,-0.17
2023-01-29T01:23:49.438Z,-0.18
2023-01-29T01:26:15.860Z,-0.17
2023-01-29T01:28:42.460Z,-0.19
2023-01-29T01:31:11.341Z,-0.22
2023-01-29T01:33:38.465Z,-0.18
2023-01-29T01:36:06.381Z,-0.18
2023-01-29T01:38:33.177Z,-0.21
2023-01-29T01:40:59.586Z,-0.17
2023-01-29T01:43:26.901Z,-0.16
2023-01-29T01:45:53.618Z,-0.21
2023-01-29T01:48:24.848Z,-0.22
2023-01-29T01:51:00.549Z,-0.22
2023-01-29T01:53:38.952Z,-0.24
2023-01-29T01:56:09.444Z,-0.29
2023-01-29T01:58:43.695Z,-0.27
2023-01-29T02:01:11.330Z,-0.27
2023-01-29T02:03:49.710Z,-0.27
2023-01-29T02:06:16.205Z,-0.28
2023-01-29T02:08:52.730Z,-0.31
2023-01-29T02:11:20.343Z,-0.28
2023-01-29T02:13:47.296Z,-0.27
2023-01-29T02:16:14.050Z,-0.26
2023-01-29T02:18:40.859Z,-0.27
2023-01-29T02:21:40.489Z,-0.27
2023-01-29T02:24:35.221Z,-0.27
2023-01-29T02:27:14.922Z,-0.34
2023-01-29T02:29:53.380Z,-0.30
2023-01-29T02:32:28.424Z,-0.28
2023-01-29T02:35:09.118Z,-0.31
2023-01-29T02:37:50.034Z,-0.35
2023-01-29T02:40:35.181Z,-0.35
2023-01-29T02:43:28.977Z,-0.33
2023-01-29T02:46:20.401Z,-0.33
2023-01-29T02:48:59.587Z,-0.36
2023-01-29T02:51:34.398Z,-0.36
2023-01-29T02:54:11.443Z,-0.34
2023-01-29T02:56:51.912Z,-0.35
2023-01-29T02:59:25.929Z,-0.40
2023-01-29T03:02:05.414Z,-0.40
2023-01-29T03:04:36.673Z,-0.44
2023-01-29T03:07:10.353Z,-0.51
2023-01-29T03:09:42.769Z,-0.52
2023-01-29T03:12:26.687Z,-0.51
2023-01-29T03:14:53.303Z,-0.54
2023-01-29T03:17:26.251Z,-0.51
2023-01-29T03:19:53.213Z,-0.49
2023-01-29T03:22:20.802Z,-0.55
2023-01-29T03:24:51.952Z,-0.59
2023-01-29T03:27:23.278Z,-0.56
2023-01-29T03:29:52.978Z,-0.57
2023-01-29T03:32:21.255Z,-0.63
2023-01-29T03:34:58.711Z,-0.66
2023-01-29T03:37:46.515Z,-0.66
2023-01-29T03:40:15.325Z,-0.63
2023-01-29T03:43:14.130Z,-0.63
2023-01-29T03:46:02.174Z,-0.64
2023-01-29T03:48:37.117Z,-0.60
2023-01-29T03:51:06.652Z,-0.60
2023-01-29T03:53:47.646Z,-0.63
2023-01-29T03:56:21.499Z,-0.64
2023-01-29T03:59:07.009Z,-0.62
2023-01-29T04:01:45.199Z,-0.59
2023-01-29T04:04:17.122Z,-0.57
2023-01-29T04:06:47.607Z,-0.57
2023-01-29T04:09:20.452Z,-0.56
2023-01-29T04:11:54.376Z,-0.54
2023-01-29T04:14:22.070Z,-0.54
2023-01-29T04:16:53.370Z,-0.62
2023-01-29T04:19:21.065Z,-0.59
2023-01-29T04:21:50.679Z,-0.59
2023-01-29T04:24:17.634Z,-0.65
2023-01-29T04:26:51.325Z,-0.64
2023-01-29T04:29:30.435Z,-0.59
2023-01-29T04:32:18.540Z,-0.54
2023-01-29T04:34:51.080Z,-0.52
2023-01-29T04:37:36.058Z,-0.49
2023-01-29T04:40:15.122Z,-0.49
2023-01-29T04:42:51.177Z,-0.50
2023-01-29T04:45:39.494Z,-0.55
2023-01-29T04:48:11.737Z,-0.58
2023-01-29T04:50:44.306Z,-0.59
2023-01-29T04:53:23.461Z,-0.60
2023-01-29T04:55:56.837Z,-0.57
2023-01-29T04:58:34.872Z,-0.56
2023-01-29T05:01:05.980Z,-0.57
2023-01-29T05:03:34.059Z,-0.65
2023-01-29T05:06:02.104Z,-0.71
2023-01-29T05:08:31.246Z,-0.74
2023-01-29T05:11:00.139Z,-0.72
2023-01-29T05:13:30.097Z,-0.67
2023-01-29T05:16:25.664Z,-0.68
2023-01-29T05:18:52.356Z,-0.74
2023-01-29T05:21:19.520Z,-0.72
2023-01-29T05:23:46.015Z,-0.68
2023-01-29T05:26:12.399Z,-0.70
2023-01-29T05:28:39.264Z,-0.68
2023-01-29T05:31:06.113Z,-0.66
2023-01-29T05:33:32.647Z,-0.70
2023-01-29T05:36:00.338Z,-0.65
2023-01-29T05:38:26.873Z,-0.66
2023-01-29T05:40:53.615Z,-0.66
2023-01-29T05:43:23.018Z,-0.67
2023-01-29T05:46:00.444Z,-0.70
2023-01-29T05:48:28.957Z,-0.67
2023-01-29T05:51:00.870Z,-0.68
2023-01-29T05:53:29.478Z,-0.68
2023-01-29T05:55:56.081Z,-0.65
2023-01-29T05:58:23.139Z,-0.61
2023-01-29T06:00:49.717Z,-0.61
2023-01-29T06:03:16.074Z,-0.69
2023-01-29T06:05:42.523Z,-0.65
2023-01-29T06:08:09.100Z,-0.64
2023-01-29T06:10:35.561Z,-0.77
2023-01-29T06:13:02.593Z,-0.80
2023-01-29T06:15:29.129Z,-0.81
2023-01-29T06:17:57.296Z,-0.77
2023-01-29T06:20:24.921Z,-0.77
2023-01-29T06:22:51.651Z,-0.82
2023-01-29T06:25:19.655Z,-0.79
2023-01-29T06:27:46.260Z,-0.81
2023-01-29T06:30:13.302Z,-0.81
2023-01-29T06:32:39.940Z,-0.78
2023-01-29T06:35:06.946Z,-0.78
2023-01-29T06:37:33.470Z,-0.81
2023-01-29T06:39:59.864Z,-0.78
2023-01-29T06:42:26.624Z,-0.78
2023-01-29T06:44:54.515Z,-0.74
2023-01-29T06:47:21.186Z,-0.70
2023-01-29T06:49:47.599Z,-0.66
2023-01-29T06:52:14.248Z,-0.74
2023-01-29T06:54:40.834Z,-0.81
2023-01-29T06:57:07.545Z,-0.78
2023-01-29T06:59:34.064Z,-0.79
2023-01-29T07:02:00.517Z,-0.80
2023-01-29T07:04:26.993Z,-0.77
2023-01-29T07:06:53.714Z,-0.77
2023-01-29T07:09:20.218Z,-0.76
2023-01-29T07:11:46.708Z,-0.76
2023-01-29T07:14:13.140Z,-0.80
2023-01-29T07:16:39.584Z,-0.84
2023-01-29T07:19:06.106Z,-0.82
2023-01-29T07:21:32.746Z,-0.80
2023-01-29T07:23:59.458Z,-0.81
2023-01-29T07:26:26.177Z,-0.75
2023-01-29T07:28:52.780Z,-0.68
2023-01-29T07:31:19.311Z,-0.71
2023-01-29T07:33:46.675Z,-0.68
2023-01-29T07:36:14.207Z,-0.75
2023-01-29T07:38:42.194Z,-0.68
2023-01-29T07:41:09.824Z,-0.60
2023-01-29T07:43:36.637Z,-0.58
2023-01-29T07:46:04.199Z,-0.56
2023-01-29T07:48:30.702Z,-0.52
2023-01-29T07:50:57.693Z,-0.47
2023-01-29T07:53:24.492Z,-0.44
2023-01-29T07:55:51.131Z,-0.41
2023-01-29T07:58:18.432Z,-0.43
2023-01-29T08:00:45.566Z,-0.45
2023-01-29T08:03:19.517Z,-0.48
2023-01-29T08:05:46.559Z,-0.45
2023-01-29T08:08:13.601Z,-0.53
2023-01-29T08:10:40.994Z,-0.55
2023-01-29T08:13:08.194Z,-0.47
2023-01-29T08:15:37.772Z,-0.42
2023-01-29T08:18:05.237Z,-0.39
2023-01-29T08:20:31.783Z,-0.32
2023-01-29T08:23:02.688Z,-0.31
2023-01-29T08:25:29.156Z,-0.24
2023-01-29T08:27:59.956Z,-0.12
2023-01-29T08:30:29.171Z,-0.14
2023-01-29T08:32:56.116Z,-0.17
2023-01-29T08:35:23.962Z,-0.25
2023-01-29T08:37:54.892Z,-0.30
2023-01-29T08:40:21.491Z,-0.34
2023-01-29T08:42:48.005Z,-0.27
2023-01-29T08:45:14.595Z,-0.27
2023-01-29T08:47:49.962Z,-0.20
2023-01-29T08:50:18.227Z,-0.28
2023-01-29T08:52:45.849Z,-0.26
2023-01-29T08:55:14.158Z,-0.22
2023-01-29T08:57:40.805Z,-0.17
2023-01-29T09:00:08.576Z,-0.08
2023-01-29T09:02:35.566Z,-0.04
2023-01-29T09:05:01.991Z,-0.11
2023-01-29T09:07:29.904Z,-0.15
2023-01-29T09:09:58.050Z,-0.17
2023-01-29T09:12:24.635Z,-0.22
2023-01-29T09:14:51.127Z,-0.17
2023-01-29T09:17:17.634Z,-0.04
2023-01-29T09:19:44.148Z,0.12
2023-01-29T09:22:11.865Z,0.19
2023-01-29T09:24:39.141Z,0.21
2023-01-29T09:27:05.918Z,0.14
2023-01-29T09:29:35.438Z,-0.14
2023-01-29T09:32:03.910Z,-0.25
2023-01-29T09:34:30.448Z,-0.27
2023-01-29T09:36:57.341Z,-0.20
2023-01-29T09:39:24.148Z,-0.02
2023-01-29T09:42:23.275Z,0.24
2023-01-29T09:45:10.285Z,0.35
2023-01-29T09:47:37.071Z,0.12
2023-01-29T09:50:36.927Z,0.16
2023-01-29T09:53:27.728Z,0.14
2023-01-29T09:56:05.675Z,0.23
2023-01-29T09:58:38.744Z,0.13
2023-01-29T10:01:33.957Z,0.13
2023-01-29T10:04:03.735Z,0.24
2023-01-29T10:06:30.182Z,0.41
2023-01-29T10:09:28.707Z,0.46
2023-01-29T10:12:35.492Z,0.51
2023-01-29T10:15:39.398Z,0.55
2023-01-29T10:18:17.902Z,0.46
2023-01-29T10:20:56.965Z,0.76
2023-01-29T10:23:34.368Z,0.60
2023-01-29T10:26:01.122Z,0.96
2023-01-29T10:28:44.250Z,1.11
2023-01-29T10:31:15.271Z,1.19
2023-01-29T10:34:01.106Z,1.28
2023-01-29T10:36:43.805Z,1.15
2023-01-29T10:39:20.312Z,1.28
2023-01-29T10:42:19.992Z,1.22
2023-01-29T10:45:08.916Z,0.34
2023-01-29T10:48:06.471Z,0.45
2023-01-29T10:50:36.096Z,0.41
2023-01-29T10:53:21.149Z,0.31
2023-01-29T10:56:23.142Z,0.69
2023-01-29T10:59:35.165Z,0.60
2023-01-29T11:02:01.811Z,0.50
2023-01-29T11:04:31.804Z,0.75
2023-01-29T11:06:59.544Z,1.01
2023-01-29T11:10:08.191Z,1.16
2023-01-29T11:12:35.964Z,0.60
2023-01-29T11:15:19.921Z,0.57
2023-01-29T11:18:15.935Z,0.74
2023-01-29T11:20:45.737Z,0.79
2023-01-29T11:23:30.997Z,0.80
2023-01-29T11:25:59.315Z,0.94
2023-01-29T11:28:46.610Z,0.96
2023-01-29T11:31:29.294Z,1.15
2023-01-29T11:34:21.029Z,1.18
2023-01-29T11:37:00.793Z,1.03
2023-01-29T11:39:30.082Z,0.90
2023-01-29T11:41:58.159Z,0.82
2023-01-29T11:44:34.328Z,0.96
2023-01-29T11:47:18.463Z,1.01
2023-01-29T11:49:52.349Z,1.30
2023-01-29T11:52:21.955Z,1.42
2023-01-29T11:54:55.348Z,1.33
2023-01-29T11:57:36.935Z,1.06
2023-01-29T12:00:24.848Z,1.25
2023-01-29T12:03:16.904Z,1.16
2023-01-29T12:05:56.378Z,1.34
2023-01-29T12:08:24.093Z,1.19
2023-01-29T12:10:50.996Z,0.99
2023-01-29T12:13:28.119Z,1.24
2023-01-29T12:16:33.129Z,1.12
2023-01-29T12:19:28.232Z,1.39
2023-01-29T12:22:04.643Z,1.47
2023-01-29T12:24:59.671Z,1.75
2023-01-29T12:27:35.493Z,1.73
2023-01-29T12:30:29.080Z,1.94
2023-01-29T12:32:58.501Z,1.94
2023-01-29T12:35:29.638Z,1.88
2023-01-29T12:38:18.177Z,2.18
2023-01-29T12:40:51.402Z,2.40
2023-01-29T12:43:25.173Z,2.59
2023-01-29T12:45:57.976Z,2.77
2023-01-29T12:48:31.939Z,2.83
2023-01-29T12:51:19.571Z,2.90
2023-01-29T12:54:00.979Z,2.94
2023-01-29T12:56:43.383Z,2.87
2023-01-29T12:59:29.854Z,2.19
2023-01-29T13:02:10.260Z,2.76
2023-01-29T13:04:40.441Z,3.00
2023-01-29T13:07:32.097Z,3.12
2023-01-29T13:10:10.443Z,3.16
2023-01-29T13:12:39.661Z,2.59
2023-01-29T13:15:26.796Z,2.75
2023-01-29T13:18:16.678Z,2.48
2023-01-29T13:20:44.674Z,2.42
2023-01-29T13:23:22.924Z,2.58
2023-01-29T13:25:54.750Z,2.46
2023-01-29T13:28:26.644Z,2.51
2023-01-29T13:31:11.766Z,2.36
2023-01-29T13:33:40.876Z,2.43
2023-01-29T13:36:15.542Z,2.18
2023-01-29T13:38:43.483Z,1.93
2023-01-29T13:41:10.006Z,2.10
2023-01-29T13:43:43.420Z,2.29
2023-01-29T13:46:20.768Z,2.26
2023-01-29T13:48:50.296Z,2.06
2023-01-29T13:51:22.032Z,2.36
2023-01-29T13:54:03.928Z,2.49
2023-01-29T13:56:33.378Z,2.46
2023-01-29T13:59:02.235Z,2.37
2023-01-29T14:01:47.400Z,2.26
2023-01-29T14:04:28.155Z,1.96
2023-01-29T14:06:58.060Z,1.89
2023-01-29T14:09:37.337Z,1.95
2023-01-29T14:12:23.216Z,1.85
2023-01-29T14:15:21.154Z,1.93
2023-01-29T14:17:55.201Z,1.87
2023-01-29T14:20:38.668Z,1.70
2023-01-29T14:23:24.503Z,1.75
2023-01-29T14:25:51.315Z,1.80
2023-01-29T14:28:23.030Z,1.75
2023-01-29T14:30:50.468Z,1.70
2023-01-29T14:33:41.002Z,1.69
2023-01-29T14:36:15.610Z,1.71
2023-01-29T14:38:51.879Z,1.68
2023-01-29T14:41:29.324Z,1.83
2023-01-29T14:44:33.253Z,1.79
2023-01-29T14:46:59.686Z,1.75
2023-01-29T14:49:58.101Z,1.69
2023-01-29T14:52:40.690Z,1.59
2023-01-29T14:55:15.797Z,1.52
2023-01-29T14:57:43.023Z,1.56
2023-01-29T15:00:26.685Z,1.50
2023-01-29T15:03:01.631Z,1.44
2023-01-29T15:05:32.938Z,1.41
2023-01-29T15:08:16.647Z,1.46
2023-01-29T15:10:50.982Z,1.45
2023-01-29T15:13:35.692Z,1.42
2023-01-29T15:16:14.762Z,1.46
2023-01-29T15:18:45.851Z,1.45
2023-01-29T15:21:14.807Z,1.48
2023-01-29T15:23:43.804Z,1.43
2023-01-29T15:26:13.366Z,1.38
2023-01-29T15:28:39.818Z,1.29
2023-01-29T15:31:15.611Z,1.29
2023-01-29T15:33:46.007Z,1.16
2023-01-29T15:36:25.495Z,1.11
2023-01-29T15:39:27.199Z,1.05
2023-01-29T15:42:14.219Z,1.01
2023-01-29T15:44:45.693Z,0.99
2023-01-29T15:47:14.172Z,0.92
2023-01-29T15:49:43.043Z,0.88
2023-01-29T15:52:18.096Z,0.80
2023-01-29T15:54:45.254Z,0.73
2023-01-29T15:57:29.494Z,0.71
2023-01-29T15:59:58.703Z,0.67
2023-01-29T16:02:43.815Z,0.66
2023-01-29T16:05:24.018Z,0.61
2023-01-29T16:07:52.308Z,0.53
2023-01-29T16:10:28.249Z,0.44
2023-01-29T16:12:55.056Z,0.39
2023-01-29T16:15:31.060Z,0.33
2023-01-29T16:17:58.375Z,0.27
2023-01-29T16:20:39.079Z,0.25
2023-01-29T16:23:07.497Z,0.21
2023-01-29T16:25:36.641Z,0.10
2023-01-29T16:28:05.384Z,0.07
2023-01-29T16:30:32.180Z,0.02
2023-01-29T16:33:11.403Z,-0.06
2023-01-29T16:35:38.019Z,-0.17
2023-01-29T16:38:26.167Z,-0.22
2023-01-29T16:41:16.352Z,-0.28
2023-01-29T16:43:56.950Z,-0.33
2023-01-29T16:46:35.545Z,-0.40
2023-01-29T16:49:09.895Z,-0.38
2023-01-29T16:51:38.745Z,-0.43
2023-01-29T16:54:12.410Z,-0.49
2023-01-29T16:56:42.333Z,-0.56
2023-01-29T16:59:36.834Z,-0.62
2023-01-29T17:02:05.228Z,-0.62
2023-01-29T17:04:33.310Z,-0.60
2023-01-29T17:07:02.461Z,-0.73
2023-01-29T17:09:34.898Z,-0.82
2023-01-29T17:12:05.990Z,-0.84
2023-01-29T17:14:34.036Z,-0.90
2023-01-29T17:17:15.433Z,-0.96
2023-01-29T17:19:41.871Z,-1.04
2023-01-29T17:22:08.343Z,-1.09
2023-01-29T17:24:34.960Z,-1.14
2023-01-29T17:27:02.201Z,-1.21
2023-01-29T17:29:31.595Z,-1.25
2023-01-29T17:31:58.295Z,-1.26
2023-01-29T17:34:26.973Z,-1.29
2023-01-29T17:37:01.130Z,-1.33
2023-01-29T17:39:27.685Z,-1.43
2023-01-29T17:41:57.001Z,-1.46
2023-01-29T17:44:25.208Z,-1.51
2023-01-29T17:46:53.121Z,-1.50
2023-01-29T17:49:29.664Z,-1.53
2023-01-29T17:51:57.086Z,-1.58
2023-01-29T17:54:24.288Z,-1.62
2023-01-29T17:56:52.895Z,-1.67
2023-01-29T17:59:25.602Z,-1.69
2023-01-29T18:01:52.263Z,-1.74
2023-01-29T18:04:19.557Z,-1.80
2023-01-29T18:06:49.088Z,-1.83
2023-01-29T18:09:17.818Z,-1.86
2023-01-29T18:11:46.619Z,-1.87
2023-01-29T18:14:14.691Z,-1.89
2023-01-29T18:16:42.964Z,-1.93
2023-01-29T18:19:22.569Z,-1.95
2023-01-29T18:21:49.934Z,-1.97
2023-01-29T18:24:16.408Z,-1.99
2023-01-29T18:26:43.163Z,-2.03
2023-01-29T18:29:09.850Z,-2.03
2023-01-29T18:31:36.293Z,-2.05
2023-01-29T18:34:03.256Z,-2.04
2023-01-29T18:36:29.838Z,-2.04
2023-01-29T18:38:58.328Z,-2.07
2023-01-29T18:41:24.908Z,-2.10
2023-01-29T18:43:51.468Z,-2.12
2023-01-29T18:46:18.531Z,-2.18
2023-01-29T18:48:45.043Z,-2.20
2023-01-29T18:51:11.588Z,-2.22
2023-01-29T18:53:38.016Z,-2.23
2023-01-29T18:56:08.625Z,-2.25
2023-01-29T18:58:36.790Z,-2.28
2023-01-29T19:01:06.004Z,-2.29
2023-01-29T19:03:32.952Z,-2.34
2023-01-29T19:06:04.097Z,-2.35
2023-01-29T19:08:30.874Z,-2.36
2023-01-29T19:10:57.784Z,-2.38
2023-01-29T19:13:24.529Z,-2.37
2023-01-29T19:15:52.697Z,-2.40
2023-01-29T19:18:19.211Z,-2.37
2023-01-29T19:20:45.902Z,-2.30
2023-01-29T19:23:12.663Z,-2.36
2023-01-29T19:25:39.880Z,-2.36
2023-01-29T19:28:07.072Z,-2.32
2023-01-29T19:30:34.020Z,-2.38
2023-01-29T19:33:01.037Z,-2.46
2023-01-29T19:35:30.792Z,-2.49
2023-01-29T19:37:57.297Z,-2.54
2023-01-29T19:40:24.070Z,-2.55
2023-01-29T19:42:54.707Z,-2.61
2023-01-29T19:45:37.003Z,-2.62
2023-01-29T19:48:08.717Z,-2.60
2023-01-29T19:50:35.296Z,-2.61
2023-01-29T19:53:01.676Z,-2.61
2023-01-29T19:55:30.190Z,-2.64
2023-01-29T19:57:57.625Z,-2.66
2023-01-29T20:00:28.351Z,-2.67
2023-01-29T20:02:56.369Z,-2.69
2023-01-29T20:05:23.064Z,-2.74
2023-01-29T20:07:49.681Z,-2.74
2023-01-29T20:10:16.574Z,-2.81
2023-01-29T20:12:46.028Z,-2.81
2023-01-29T20:15:13.738Z,-2.83
2023-01-29T20:17:40.305Z,-2.83
2023-01-29T20:20:07.300Z,-2.84
2023-01-29T20:22:33.812Z,-2.76
2023-01-29T20:25:01.704Z,-2.76
2023-01-29T20:27:28.256Z,-2.75
2023-01-29T20:29:54.888Z,-2.80
2023-01-29T20:32:21.372Z,-2.78
2023-01-29T20:34:47.853Z,-2.83
2023-01-29T20:37:14.341Z,-2.85
2023-01-29T20:39:40.799Z,-2.86
2023-01-29T20:42:08.453Z,-2.85
2023-01-29T20:44:34.902Z,-2.87
2023-01-29T20:47:01.950Z,-2.91
2023-01-29T20:49:28.618Z,-2.92
2023-01-29T20:51:55.109Z,-2.98
2023-01-29T20:54:21.545Z,-2.96
2023-01-29T20:56:48.238Z,-3.03
2023-01-29T20:59:16.317Z,-2.99
2023-01-29T21:01:43.680Z,-3.01
2023-01-29T21:04:10.208Z,-3.04
2023-01-29T21:06:36.712Z,-3.06
2023-01-29T21:09:05.903Z,-3.04
2023-01-29T21:11:32.601Z,-3.04
2023-01-29T21:13:59.199Z,-3.03
2023-01-29T21:16:26.378Z,-3.04
2023-01-29T21:18:57.545Z,-3.07
2023-01-29T21:21:24.628Z,-3.11
2023-01-29T21:23:51.247Z,-3.18
2023-01-29T21:26:17.936Z,-3.23
2023-01-29T21:28:46.808Z,-3.26
2023-01-29T21:31:15.085Z,-3.29
2023-01-29T21:33:41.911Z,-3.28
2023-01-29T21:36:09.454Z,-3.26
2023-01-29T21:38:36.320Z,-3.30
2023-01-29T21:41:05.070Z,-3.35
2023-01-29T21:43:31.714Z,-3.40
2023-01-29T21:46:00.888Z,-3.41
2023-01-29T21:48:27.678Z,-3.39
2023-01-29T21:50:54.191Z,-3.37
2023-01-29T21:53:20.713Z,-3.37
2023-01-29T21:55:47.439Z,-3.35
2023-01-29T21:58:14.644Z,-3.39
2023-01-29T22:00:41.645Z,-3.43
2023-01-29T22:03:08.280Z,-3.48
2023-01-29T22:05:34.872Z,-3.53
2023-01-29T22:08:02.965Z,-3.54
2023-01-29T22:10:29.632Z,-3.58
2023-01-29T22:12:57.356Z,-3.56
2023-01-29T22:15:24.797Z,-3.53
2023-01-29T22:17:52.302Z,-3.54
2023-01-29T22:20:19.868Z,-3.53
2023-01-29T22:22:46.846Z,-3.53
2023-01-29T22:25:13.429Z,-3.54
2023-01-29T22:27:39.921Z,-3.57
2023-01-29T22:30:07.262Z,-3.57
2023-01-29T22:32:33.797Z,-3.53
2023-01-29T22:35:00.540Z,-3.53
2023-01-29T22:37:27.174Z,-3.56
2023-01-29T22:39:53.772Z,-3.46
2023-01-29T22:42:22.692Z,-3.52
2023-01-29T22:44:50.207Z,-3.62
2023-01-29T22:47:20.204Z,-3.66
2023-01-29T22:49:48.345Z,-3.72
2023-01-29T22:52:14.936Z,-3.77
2023-01-29T22:54:43.366Z,-3.82
2023-01-29T22:57:11.952Z,-3.84
2023-01-29T22:59:41.307Z,-3.80
2023-01-29T23:02:08.477Z,-3.79
2023-01-29T23:04:35.225Z,-3.81
2023-01-29T23:07:01.851Z,-3.83
2023-01-29T23:09:28.633Z,-3.78
2023-01-29T23:11:55.144Z,-3.79
2023-01-29T23:14:22.643Z,-3.84
2023-01-29T23:16:49.210Z,-3.88
2023-01-29T23:19:15.870Z,-3.87
2023-01-29T23:21:42.288Z,-3.91
2023-01-29T23:24:09.478Z,-3.97
2023-01-29T23:26:36.218Z,-4.00
2023-01-29T23:29:02.692Z,-4.02
2023-01-29T23:31:29.898Z,-4.04
2023-01-29T23:33:56.427Z,-4.07
2023-01-29T23:36:22.971Z,-4.07
2023-01-29T23:38:49.419Z,-4.07
2023-01-29T23:41:15.886Z,-4.07
2023-01-29T23:43:44.516Z,-4.14
2023-01-29T23:46:11.008Z,-4.18
2023-01-29T23:48:37.767Z,-4.21
2023-01-29T23:51:05.640Z,-4.26
2023-01-29T23:53:32.179Z,-4.20
2023-01-29T23:56:01.199Z,-4.08
2023-01-29T23:58:28.738Z,-4.02
